createdAt,value
2019-02-06T00:00:03.753Z,3.33
2019-02-06T00:01:03.759Z,3.30
2019-02-06T00:02:03.697Z,3.24
2019-02-06T00:03:03.671Z,3.24
2019-02-06T00:04:03.671Z,3.20
2019-02-06T00:05:14.107Z,3.18
2019-02-06T00:06:03.569Z,3.18
2019-02-06T00:07:03.597Z,3.07
2019-02-06T00:08:03.589Z,3.16
2019-02-06T00:09:03.482Z,3.13
2019-02-06T00:10:03.503Z,2.97
2019-02-06T00:11:03.491Z,2.98
2019-02-06T00:12:03.424Z,2.98
2019-02-06T00:13:03.376Z,2.98
2019-02-06T00:14:03.325Z,2.98
2019-02-06T00:15:03.343Z,2.94
2019-02-06T00:16:03.280Z,2.95
2019-02-06T00:17:03.280Z,2.89
2019-02-06T00:18:03.203Z,2.95
2019-02-06T00:19:03.175Z,2.92
2019-02-06T00:20:03.144Z,2.92
2019-02-06T00:21:03.163Z,2.89
2019-02-06T00:22:03.091Z,2.94
2019-02-06T00:23:03.071Z,2.84
2019-02-06T00:24:03.012Z,2.98
2019-02-06T00:25:02.986Z,2.94
2019-02-06T00:26:02.954Z,2.89
2019-02-06T00:27:03.002Z,2.91
2019-02-06T00:28:02.892Z,2.87
2019-02-06T00:29:02.911Z,2.82
2019-02-06T00:30:02.821Z,2.81
2019-02-06T00:31:02.805Z,2.77
2019-02-06T00:32:02.832Z,2.71
2019-02-06T00:33:02.733Z,2.73
2019-02-06T00:34:02.729Z,2.73
2019-02-06T00:35:02.670Z,2.77
2019-02-06T00:36:02.645Z,2.81
2019-02-06T00:37:02.618Z,2.73
2019-02-06T00:38:05.266Z,2.77
2019-02-06T00:39:02.554Z,2.73
2019-02-06T00:40:02.575Z,2.69
2019-02-06T00:41:02.506Z,2.64
2019-02-06T00:42:02.473Z,2.63
2019-02-06T00:43:03.511Z,2.73
2019-02-06T00:44:02.401Z,2.56
2019-02-06T00:45:02.409Z,2.59
2019-02-06T00:46:02.344Z,2.61
2019-02-06T00:47:02.306Z,2.59
2019-02-06T00:48:02.288Z,2.58
2019-02-06T00:49:02.330Z,2.56
2019-02-06T00:50:02.213Z,2.61
2019-02-06T00:51:02.232Z,2.56
2019-02-06T00:52:02.142Z,2.55
2019-02-06T00:53:02.113Z,2.53
2019-02-06T00:54:02.082Z,2.55
2019-02-06T00:55:02.152Z,2.52
2019-02-06T00:56:02.041Z,2.52
2019-02-06T00:57:02.060Z,2.48
2019-02-06T00:58:01.960Z,2.44
2019-02-06T00:59:01.921Z,2.45
2019-02-06T01:00:01.970Z,2.45
2019-02-06T01:01:01.870Z,2.46
2019-02-06T01:02:01.881Z,2.45
2019-02-06T01:03:01.813Z,2.37
2019-02-06T01:04:01.774Z,2.35
2019-02-06T01:05:01.806Z,2.37
2019-02-06T01:06:01.714Z,2.33
2019-02-06T01:07:01.720Z,2.35
2019-02-06T01:08:01.647Z,2.35
2019-02-06T01:09:01.615Z,2.33
2019-02-06T01:10:01.592Z,2.23
2019-02-06T01:11:01.633Z,2.20
2019-02-06T01:12:01.522Z,2.15
2019-02-06T01:13:01.542Z,2.28
2019-02-06T01:14:01.462Z,2.22
2019-02-06T01:15:01.615Z,2.23
2019-02-06T01:16:01.399Z,2.22
2019-02-06T01:17:01.471Z,2.19
2019-02-06T01:18:01.341Z,2.23
2019-02-06T01:19:01.386Z,2.22
2019-02-06T01:20:01.270Z,2.17
2019-02-06T01:21:01.291Z,2.09
2019-02-06T01:22:01.215Z,2.06
2019-02-06T01:23:01.213Z,2.04
2019-02-06T01:24:01.153Z,2.06
2019-02-06T01:25:01.222Z,2.04
2019-02-06T01:26:01.082Z,2.10
2019-02-06T01:27:01.123Z,2.13
2019-02-06T01:28:01.029Z,2.13
2019-02-06T01:29:01.035Z,2.02
2019-02-06T01:30:00.990Z,2.10
2019-02-06T01:31:01.040Z,2.06
2019-02-06T01:32:00.903Z,2.01
2019-02-06T01:33:00.954Z,2.01
2019-02-06T01:34:00.852Z,2.02
2019-02-06T01:35:00.865Z,2.04
2019-02-06T01:36:00.771Z,2.10
2019-02-06T01:37:00.740Z,2.13
2019-02-06T01:38:00.710Z,2.06
2019-02-06T01:39:00.790Z,2.08
2019-02-06T01:40:00.652Z,2.06
2019-02-06T01:41:00.700Z,2.01
2019-02-06T01:42:00.591Z,1.99
2019-02-06T01:43:00.552Z,1.98
2019-02-06T01:44:00.610Z,2.08
2019-02-06T01:45:00.541Z,2.04
2019-02-06T01:46:00.522Z,2.02
2019-02-06T01:47:00.432Z,1.99
2019-02-06T01:48:00.400Z,2.06
2019-02-06T01:49:00.371Z,2.01
2019-02-06T01:50:00.466Z,1.97
2019-02-06T01:51:00.310Z,2.04
2019-02-06T01:52:00.397Z,2.01
2019-02-06T01:53:00.232Z,2.06
2019-02-06T01:54:00.212Z,2.08
2019-02-06T01:55:00.213Z,2.01
2019-02-06T01:56:00.180Z,2.08
2019-02-06T01:57:00.121Z,2.10
2019-02-06T01:58:00.198Z,2.09
2019-02-06T01:59:00.053Z,2.04
2019-02-06T02:00:00.183Z,2.10
2019-02-06T02:00:59.991Z,2.02
2019-02-06T02:02:00.011Z,2.04
2019-02-06T02:02:59.922Z,2.02
2019-02-06T02:03:59.921Z,2.12
2019-02-06T02:04:59.930Z,2.08
2019-02-06T02:06:02.490Z,2.13
2019-02-06T02:06:59.832Z,2.08
2019-02-06T02:07:59.760Z,2.06
2019-02-06T02:08:59.854Z,2.16
2019-02-06T02:09:59.701Z,2.09
2019-02-06T02:10:59.669Z,2.09
2019-02-06T02:11:59.659Z,2.12
2019-02-06T02:12:59.672Z,2.13
2019-02-06T02:13:59.683Z,2.15
2019-02-06T02:14:59.551Z,2.10
2019-02-06T02:15:59.521Z,2.12
2019-02-06T02:16:59.481Z,2.12
2019-02-06T02:17:59.506Z,2.12
2019-02-06T02:18:59.432Z,2.16
2019-02-06T02:19:59.411Z,2.20
2019-02-06T02:20:59.360Z,2.16
2019-02-06T02:21:59.345Z,2.13
2019-02-06T02:22:59.322Z,2.15
2019-02-06T02:23:59.264Z,2.19
2019-02-06T02:24:59.343Z,2.16
2019-02-06T02:25:59.203Z,2.17
2019-02-06T02:26:59.171Z,2.15
2019-02-06T02:27:59.140Z,2.15
2019-02-06T02:28:59.161Z,2.17
2019-02-06T02:29:59.080Z,2.23
2019-02-06T02:30:59.061Z,2.19
2019-02-06T02:31:59.033Z,2.26
2019-02-06T02:32:58.980Z,2.26
2019-02-06T02:33:58.981Z,2.30
2019-02-06T02:34:58.926Z,2.31
2019-02-06T02:35:59.004Z,2.37
2019-02-06T02:36:58.851Z,2.40
2019-02-06T02:37:58.832Z,2.33
2019-02-06T02:38:58.790Z,2.45
2019-02-06T02:39:58.812Z,2.40
2019-02-06T02:40:58.735Z,2.37
2019-02-06T02:41:58.720Z,2.35
2019-02-06T02:42:58.675Z,2.33
2019-02-06T02:43:58.631Z,2.40
2019-02-06T02:44:58.612Z,2.34
2019-02-06T02:45:58.651Z,2.34
2019-02-06T02:46:58.562Z,2.35
2019-02-06T02:47:58.664Z,2.34
2019-02-06T02:48:58.487Z,2.35
2019-02-06T02:49:58.469Z,2.33
2019-02-06T02:50:58.410Z,2.31
2019-02-06T02:51:58.484Z,2.28
2019-02-06T02:52:58.351Z,2.34
2019-02-06T02:53:58.393Z,2.41
2019-02-06T02:54:58.401Z,2.40
2019-02-06T02:55:58.254Z,2.49
2019-02-06T02:56:58.310Z,2.49
2019-02-06T02:57:58.190Z,2.44
2019-02-06T02:58:58.228Z,2.34
2019-02-06T02:59:58.132Z,2.38
2019-02-06T03:00:58.102Z,2.34
2019-02-06T03:01:58.138Z,2.37
2019-02-06T03:02:58.032Z,2.44
2019-02-06T03:03:58.043Z,2.34
2019-02-06T03:04:57.971Z,2.33
2019-02-06T03:05:57.939Z,2.27
2019-02-06T03:06:57.900Z,2.30
2019-02-06T03:07:57.981Z,2.26
2019-02-06T03:08:57.841Z,2.31
2019-02-06T03:09:57.884Z,2.28
2019-02-06T03:10:57.792Z,2.30
2019-02-06T03:11:57.750Z,2.30
2019-02-06T03:12:57.791Z,2.34
2019-02-06T03:13:57.701Z,2.23
2019-02-06T03:14:57.701Z,2.15
2019-02-06T03:15:57.621Z,2.26
2019-02-06T03:16:57.590Z,2.23
2019-02-06T03:17:57.559Z,2.19
2019-02-06T03:18:57.631Z,2.28
2019-02-06T03:19:57.495Z,2.23
2019-02-06T03:20:57.545Z,2.19
2019-02-06T03:21:57.429Z,2.16
2019-02-06T03:22:57.457Z,2.19
2019-02-06T03:23:57.450Z,2.19
2019-02-06T03:24:57.338Z,2.12
2019-02-06T03:25:57.360Z,2.08
2019-02-06T03:26:57.283Z,2.16
2019-02-06T03:27:57.255Z,2.16
2019-02-06T03:28:57.212Z,2.12
2019-02-06T03:29:57.291Z,2.09
2019-02-06T03:30:57.154Z,2.09
2019-02-06T03:31:57.193Z,2.04
2019-02-06T03:32:57.103Z,2.08
2019-02-06T03:33:57.068Z,2.01
2019-02-06T03:34:57.109Z,2.02
2019-02-06T03:35:56.990Z,2.06
2019-02-06T03:36:57.019Z,2.09
2019-02-06T03:39:28.629Z,2.08
2019-02-06T03:40:28.570Z,2.02
2019-02-06T03:41:28.739Z,1.97
2019-02-06T03:42:28.510Z,1.97
2019-02-06T03:43:28.564Z,2.06
2019-02-06T03:44:28.451Z,2.06
2019-02-06T03:45:28.414Z,2.04
2019-02-06T03:46:28.482Z,2.09
2019-02-06T03:47:28.349Z,2.08
2019-02-06T03:48:28.384Z,2.16
2019-02-06T03:49:28.292Z,2.06
2019-02-06T03:50:28.252Z,2.12
2019-02-06T03:51:28.224Z,2.12
2019-02-06T03:52:28.200Z,2.06
2019-02-06T03:53:28.162Z,2.06
2019-02-06T03:54:28.221Z,2.19
2019-02-06T03:55:28.102Z,2.19
2019-02-06T03:56:28.074Z,2.28
2019-02-06T03:57:28.132Z,2.31
2019-02-06T03:58:28.003Z,2.19
2019-02-06T03:59:28.042Z,2.16
2019-02-06T04:00:27.941Z,2.22
2019-02-06T04:01:27.910Z,2.27
2019-02-06T04:02:27.872Z,2.20
2019-02-06T04:03:27.862Z,2.16
2019-02-06T04:04:27.812Z,2.16
2019-02-06T04:05:27.881Z,2.26
2019-02-06T04:06:27.760Z,2.26
2019-02-06T04:07:27.723Z,2.12
2019-02-06T04:08:27.681Z,2.10
2019-02-06T04:09:27.699Z,2.12
2019-02-06T04:10:27.631Z,2.04
2019-02-06T04:11:27.613Z,2.02
2019-02-06T04:12:27.551Z,1.98
2019-02-06T04:13:27.623Z,2.04
2019-02-06T04:14:27.495Z,1.99
2019-02-06T04:15:27.531Z,2.01
2019-02-06T04:16:27.431Z,1.94
2019-02-06T04:17:27.443Z,1.99
2019-02-06T04:18:27.376Z,1.97
2019-02-06T04:19:27.445Z,1.87
2019-02-06T04:20:27.301Z,1.94
2019-02-06T04:21:27.365Z,1.97
2019-02-06T04:22:27.243Z,1.93
2019-02-06T04:23:27.341Z,1.94
2019-02-06T04:24:27.184Z,2.06
2019-02-06T04:25:27.182Z,1.97
2019-02-06T04:26:27.114Z,2.01
2019-02-06T04:27:27.089Z,2.02
2019-02-06T04:28:27.051Z,2.04
2019-02-06T04:29:27.022Z,2.04
2019-02-06T04:30:27.011Z,1.99
2019-02-06T04:31:26.964Z,2.06
2019-02-06T04:32:27.020Z,2.04
2019-02-06T04:33:26.903Z,2.06
2019-02-06T04:34:26.931Z,2.04
2019-02-06T04:35:26.822Z,2.16
2019-02-06T04:36:26.852Z,2.10
2019-02-06T04:37:26.778Z,2.16
2019-02-06T04:38:26.752Z,2.16
2019-02-06T04:39:26.701Z,2.10
2019-02-06T04:40:26.671Z,2.15
2019-02-06T04:41:26.629Z,2.08
2019-02-06T04:42:26.788Z,2.15
2019-02-06T04:43:26.571Z,2.16
2019-02-06T04:44:26.579Z,2.15
2019-02-06T04:45:26.512Z,2.17
2019-02-06T04:46:26.473Z,2.20
2019-02-06T04:47:26.501Z,2.20
2019-02-06T04:48:26.422Z,2.22
2019-02-06T04:49:26.413Z,2.19
2019-02-06T04:50:26.352Z,2.23
2019-02-06T04:51:26.322Z,2.19
2019-02-06T04:52:26.294Z,2.20
2019-02-06T04:53:26.342Z,2.19
2019-02-06T04:54:26.239Z,2.16
2019-02-06T04:55:26.247Z,2.20
2019-02-06T04:56:26.171Z,2.20
2019-02-06T04:57:26.132Z,2.17
2019-02-06T04:58:26.094Z,2.19
2019-02-06T04:59:26.173Z,2.13
2019-02-06T05:00:26.031Z,2.13
2019-02-06T05:01:26.086Z,2.19
2019-02-06T05:02:25.962Z,2.16
2019-02-06T05:03:26.115Z,2.19
2019-02-06T05:04:25.903Z,2.17
2019-02-06T05:05:25.903Z,2.10
2019-02-06T05:06:25.845Z,2.17
2019-02-06T05:07:25.914Z,2.06
2019-02-06T05:08:25.813Z,2.16
2019-02-06T05:09:25.732Z,2.16
2019-02-06T05:10:25.833Z,2.15
2019-02-06T05:11:25.680Z,2.08
2019-02-06T05:12:25.774Z,2.06
2019-02-06T05:13:25.625Z,2.08
2019-02-06T05:14:25.612Z,2.12
2019-02-06T05:15:25.651Z,2.09
2019-02-06T05:16:25.528Z,2.12
2019-02-06T05:17:25.560Z,2.15
2019-02-06T05:18:25.462Z,2.06
2019-02-06T05:19:25.422Z,2.04
2019-02-06T05:20:25.391Z,2.02
2019-02-06T05:21:25.384Z,2.01
2019-02-06T05:22:25.330Z,1.99
2019-02-06T05:23:25.402Z,1.99
2019-02-06T05:24:25.277Z,1.97
2019-02-06T05:25:25.250Z,2.01
2019-02-06T05:26:25.319Z,2.02
2019-02-06T05:27:25.171Z,2.01
2019-02-06T05:28:25.222Z,1.99
2019-02-06T05:29:25.111Z,2.06
2019-02-06T05:30:25.075Z,2.04
2019-02-06T05:31:25.046Z,2.08
2019-02-06T05:32:25.048Z,2.13
2019-02-06T05:33:24.981Z,2.09
2019-02-06T05:34:25.064Z,2.13
2019-02-06T05:35:24.932Z,2.19
2019-02-06T05:36:24.893Z,2.12
2019-02-06T05:37:32.011Z,2.17
2019-02-06T05:38:24.823Z,2.16
2019-02-06T05:39:24.913Z,2.20
2019-02-06T05:40:24.762Z,2.20
2019-02-06T05:41:24.719Z,2.19
2019-02-06T05:42:24.692Z,2.17
2019-02-06T05:43:24.702Z,2.17
2019-02-06T05:44:24.632Z,2.12
2019-02-06T05:45:24.621Z,2.16
2019-02-06T05:46:24.569Z,2.17
2019-02-06T05:47:24.542Z,2.20
2019-02-06T05:48:24.583Z,2.16
2019-02-06T05:49:24.493Z,2.13
2019-02-06T05:50:24.556Z,2.16
2019-02-06T05:51:24.410Z,2.19
2019-02-06T05:52:24.371Z,2.02
2019-02-06T05:53:24.347Z,2.20
2019-02-06T05:54:24.362Z,2.23
2019-02-06T05:55:24.283Z,2.10
2019-02-06T05:56:24.272Z,2.27
2019-02-06T05:57:24.224Z,2.19
2019-02-06T05:58:24.189Z,2.22
2019-02-06T05:59:24.204Z,2.20
2019-02-06T06:00:24.128Z,2.19
2019-02-06T06:01:24.206Z,2.17
2019-02-06T06:02:24.053Z,2.17
2019-02-06T06:03:24.113Z,2.23
2019-02-06T06:04:24.072Z,2.23
2019-02-06T06:05:24.022Z,2.20
2019-02-06T06:06:23.931Z,2.17
2019-02-06T06:07:23.933Z,2.35
2019-02-06T06:08:23.871Z,2.23
2019-02-06T06:09:23.832Z,2.20
2019-02-06T06:10:23.803Z,2.17
2019-02-06T06:11:23.863Z,2.27
2019-02-06T06:12:23.732Z,2.27
2019-02-06T06:13:23.773Z,2.16
2019-02-06T06:14:23.686Z,2.17
2019-02-06T06:15:23.642Z,2.20
2019-02-06T06:16:23.689Z,2.22
2019-02-06T06:17:23.582Z,2.27
2019-02-06T06:18:23.600Z,2.23
2019-02-06T06:19:23.513Z,2.23
2019-02-06T06:20:23.482Z,2.23
2019-02-06T06:21:23.454Z,2.22
2019-02-06T06:22:23.528Z,2.20
2019-02-06T06:23:23.381Z,2.27
2019-02-06T06:24:23.435Z,2.17
2019-02-06T06:25:23.329Z,2.22
2019-02-06T06:26:23.296Z,2.23
2019-02-06T06:27:23.342Z,2.17
2019-02-06T06:28:23.259Z,2.23
2019-02-06T06:29:23.307Z,2.23
2019-02-06T06:30:23.163Z,2.22
2019-02-06T06:31:23.138Z,2.16
2019-02-06T06:32:23.091Z,2.19
2019-02-06T06:33:23.173Z,2.22
2019-02-06T06:34:23.037Z,2.23
2019-02-06T06:35:23.081Z,2.23
2019-02-06T06:36:22.979Z,2.19
2019-02-06T06:37:22.942Z,2.26
2019-02-06T06:38:23.003Z,2.19
2019-02-06T06:39:22.875Z,2.19
2019-02-06T06:40:22.911Z,2.19
2019-02-06T06:41:22.813Z,2.16
2019-02-06T06:42:24.214Z,2.26
2019-02-06T06:43:22.767Z,2.20
2019-02-06T06:44:22.733Z,2.26
2019-02-06T06:45:22.690Z,2.19
2019-02-06T06:46:22.743Z,2.19
2019-02-06T06:47:22.631Z,2.26
2019-02-06T06:48:22.594Z,2.30
2019-02-06T06:49:22.550Z,2.26
2019-02-06T06:50:22.563Z,2.28
2019-02-06T06:51:22.510Z,2.26
2019-02-06T06:52:22.471Z,2.30
2019-02-06T06:53:22.432Z,2.30
2019-02-06T06:54:22.491Z,2.20
2019-02-06T06:55:22.373Z,2.35
2019-02-06T06:56:22.401Z,2.31
2019-02-06T06:57:22.303Z,2.26
2019-02-06T06:58:22.315Z,2.20
2019-02-06T06:59:22.239Z,2.35
2019-02-06T07:00:22.223Z,2.26
2019-02-06T07:01:22.172Z,2.34
2019-02-06T07:02:22.242Z,2.28
2019-02-06T07:03:22.124Z,2.33
2019-02-06T07:04:22.085Z,2.23
2019-02-06T07:05:22.041Z,2.20
2019-02-06T07:06:22.051Z,2.27
2019-02-06T07:07:21.980Z,2.31
2019-02-06T07:08:22.061Z,2.31
2019-02-06T07:09:21.921Z,2.20
2019-02-06T07:10:21.890Z,2.26
2019-02-06T07:11:21.883Z,2.26
2019-02-06T07:12:21.836Z,2.35
2019-02-06T07:13:21.891Z,2.23
2019-02-06T07:14:21.772Z,2.33
2019-02-06T07:15:21.739Z,2.31
2019-02-06T07:16:21.693Z,2.26
2019-02-06T07:17:21.710Z,2.23
2019-02-06T07:18:21.630Z,2.23
2019-02-06T07:19:21.624Z,2.31
2019-02-06T07:20:21.575Z,2.22
2019-02-06T07:21:21.632Z,2.23
2019-02-06T07:22:21.512Z,2.28
2019-02-06T07:23:21.544Z,2.26
2019-02-06T07:24:21.447Z,2.30
2019-02-06T07:25:21.461Z,2.17
2019-02-06T07:26:21.380Z,2.31
2019-02-06T07:27:21.362Z,2.28
2019-02-06T07:28:21.341Z,2.30
2019-02-06T07:29:21.385Z,2.30
2019-02-06T07:30:21.252Z,2.27
2019-02-06T07:31:21.222Z,2.34
2019-02-06T07:32:21.194Z,2.37
2019-02-06T07:33:21.203Z,2.35
2019-02-06T07:34:21.132Z,2.40
2019-02-06T07:35:21.114Z,2.40
2019-02-06T07:36:21.062Z,2.45
2019-02-06T07:37:21.031Z,2.35
2019-02-06T07:38:24.374Z,2.48
2019-02-06T07:39:20.972Z,2.35
2019-02-06T07:40:21.043Z,2.38
2019-02-06T07:41:20.901Z,2.38
2019-02-06T07:42:20.882Z,2.49
2019-02-06T07:43:20.959Z,2.48
2019-02-06T07:44:20.814Z,2.37
2019-02-06T07:45:20.874Z,2.37
2019-02-06T07:46:20.752Z,2.35
2019-02-06T07:47:20.769Z,2.53
2019-02-06T07:48:20.683Z,2.45
2019-02-06T07:49:20.681Z,2.44
2019-02-06T07:50:20.621Z,2.44
2019-02-06T07:51:20.711Z,2.48
2019-02-06T07:52:20.560Z,2.48
2019-02-06T07:53:20.532Z,2.46
2019-02-06T07:54:20.521Z,2.51
2019-02-06T07:55:20.461Z,2.53
2019-02-06T07:56:20.524Z,2.51
2019-02-06T07:57:20.402Z,2.53
2019-02-06T07:58:20.358Z,2.55
2019-02-06T07:59:20.332Z,2.56
2019-02-06T08:00:20.343Z,2.56
2019-02-06T08:01:20.275Z,2.59
2019-02-06T08:02:20.250Z,2.61
2019-02-06T08:03:20.212Z,2.63
2019-02-06T08:04:20.191Z,2.55
2019-02-06T08:05:20.179Z,2.58
2019-02-06T08:06:20.127Z,2.63
2019-02-06T08:07:20.181Z,2.61
2019-02-06T08:08:20.063Z,2.61
2019-02-06T08:09:20.021Z,2.61
2019-02-06T08:10:19.990Z,2.66
2019-02-06T08:11:20.011Z,2.69
2019-02-06T08:12:19.923Z,2.58
2019-02-06T08:13:19.951Z,2.71
2019-02-06T08:14:19.860Z,2.66
2019-02-06T08:15:19.830Z,2.70
2019-02-06T08:16:19.845Z,2.70
2019-02-06T08:17:19.770Z,2.67
2019-02-06T08:18:19.956Z,2.73
2019-02-06T08:19:19.716Z,2.71
2019-02-06T08:20:19.673Z,2.76
2019-02-06T08:21:19.653Z,2.76
2019-02-06T08:22:19.684Z,2.71
2019-02-06T08:23:19.583Z,2.73
2019-02-06T08:24:19.570Z,2.73
2019-02-06T08:25:19.521Z,2.79
2019-02-06T08:26:19.591Z,2.76
2019-02-06T08:27:19.464Z,2.84
2019-02-06T08:28:19.492Z,2.82
2019-02-06T08:29:19.402Z,2.88
2019-02-06T08:30:19.434Z,2.87
2019-02-06T08:31:19.411Z,2.82
2019-02-06T08:32:19.300Z,2.88
2019-02-06T08:33:19.321Z,2.91
2019-02-06T08:34:19.251Z,2.94
2019-02-06T08:35:19.230Z,2.82
2019-02-06T08:36:19.169Z,2.82
2019-02-06T08:37:19.251Z,2.92
2019-02-06T08:38:19.111Z,2.94
2019-02-06T08:39:19.151Z,2.95
2019-02-06T08:40:19.052Z,2.97
2019-02-06T08:41:19.073Z,2.98
2019-02-06T08:42:18.982Z,3.06
2019-02-06T08:43:18.982Z,3.05
2019-02-06T08:44:18.920Z,3.07
2019-02-06T08:45:18.991Z,3.10
2019-02-06T08:46:18.860Z,3.05
2019-02-06T08:47:18.829Z,3.07
2019-02-06T08:48:18.790Z,3.10
2019-02-06T08:49:18.847Z,3.21
2019-02-06T08:50:18.732Z,3.23
2019-02-06T08:51:18.734Z,3.20
2019-02-06T08:52:18.674Z,3.27
2019-02-06T08:53:18.729Z,3.27
2019-02-06T08:54:20.362Z,3.30
2019-02-06T08:55:18.641Z,3.30
2019-02-06T08:56:18.551Z,3.50
2019-02-06T08:57:18.551Z,3.40
2019-02-06T08:58:18.560Z,3.43
2019-02-06T08:59:18.453Z,3.49
2019-02-06T09:00:18.471Z,3.54
2019-02-06T09:01:18.392Z,3.54
2019-02-06T09:02:18.382Z,3.62
2019-02-06T09:03:18.333Z,3.60
2019-02-06T09:04:18.409Z,3.65
2019-02-06T09:05:18.272Z,3.67
2019-02-06T09:06:18.301Z,3.79
2019-02-06T09:07:18.222Z,3.79
2019-02-06T09:08:18.210Z,3.83
2019-02-06T09:09:18.154Z,3.86
2019-02-06T09:10:18.232Z,3.83
2019-02-06T09:11:18.080Z,4.00
2019-02-06T09:12:18.147Z,3.96
2019-02-06T09:13:18.024Z,3.94
2019-02-06T09:14:17.990Z,4.00
2019-02-06T09:15:17.971Z,3.98
2019-02-06T09:16:17.950Z,4.03
2019-02-06T09:17:17.906Z,4.08
2019-02-06T09:18:17.972Z,4.07
2019-02-06T09:19:17.840Z,4.03
2019-02-06T09:20:17.810Z,4.16
2019-02-06T09:21:17.881Z,4.18
2019-02-06T09:22:17.750Z,4.22
2019-02-06T09:23:17.793Z,4.32
2019-02-06T09:24:17.709Z,4.36
2019-02-06T09:25:17.655Z,4.42
2019-02-06T09:26:17.643Z,4.33
2019-02-06T09:27:17.612Z,4.34
2019-02-06T09:28:17.590Z,4.34
2019-02-06T09:29:17.623Z,4.51
2019-02-06T09:30:17.500Z,4.50
2019-02-06T09:31:17.533Z,4.46
2019-02-06T09:32:17.440Z,4.46
2019-02-06T09:33:17.462Z,4.57
2019-02-06T09:34:17.383Z,4.58
2019-02-06T09:35:17.462Z,4.55
2019-02-06T09:36:17.380Z,4.64
2019-02-06T09:37:17.291Z,4.52
2019-02-06T09:38:17.371Z,4.54
2019-02-06T09:39:24.515Z,4.61
2019-02-06T09:41:21.186Z,4.55
2019-02-06T09:42:21.148Z,4.61
2019-02-06T09:44:25.153Z,4.69
2019-02-06T09:45:25.055Z,4.58
2019-02-06T09:46:25.133Z,4.67
2019-02-06T09:47:24.990Z,4.65
2019-02-06T09:48:25.042Z,4.65
2019-02-06T09:49:24.927Z,4.67
2019-02-06T09:50:24.955Z,4.70
2019-02-06T09:51:24.872Z,4.70
2019-02-06T09:52:28.520Z,4.77
2019-02-06T09:53:24.804Z,4.77
2019-02-06T09:54:24.890Z,4.84
2019-02-06T09:55:24.789Z,4.77
2019-02-06T09:56:24.791Z,4.89
2019-02-06T09:57:24.680Z,4.89
2019-02-06T09:58:24.700Z,4.89
2019-02-06T09:59:24.634Z,4.98
2019-02-06T10:00:24.615Z,4.94
2019-02-06T10:01:24.566Z,4.96
2019-02-06T10:02:24.632Z,5.02
2019-02-06T10:03:24.503Z,5.01
2019-02-06T10:04:24.542Z,4.96
2019-02-06T10:05:24.440Z,5.10
2019-02-06T10:06:24.453Z,5.16
2019-02-06T10:07:24.382Z,5.13
2019-02-06T10:08:24.375Z,5.14
2019-02-06T10:09:24.324Z,5.20
2019-02-06T10:10:24.384Z,5.17
2019-02-06T10:11:24.266Z,5.14
2019-02-06T10:12:24.294Z,5.12
2019-02-06T10:13:24.202Z,5.23
2019-02-06T10:14:24.175Z,5.12
2019-02-06T10:15:24.219Z,5.25
2019-02-06T10:16:24.112Z,5.25
2019-02-06T10:17:24.134Z,5.32
2019-02-06T10:18:24.055Z,5.28
2019-02-06T10:19:24.021Z,5.32
2019-02-06T10:20:23.993Z,5.30
2019-02-06T10:21:24.057Z,5.40
2019-02-06T10:22:23.933Z,5.37
2019-02-06T10:23:23.973Z,5.35
2019-02-06T10:24:23.873Z,5.35
2019-02-06T10:25:23.872Z,5.46
2019-02-06T10:26:23.826Z,5.45
2019-02-06T10:27:24.222Z,5.41
2019-02-06T10:28:24.394Z,5.53
2019-02-06T10:29:23.801Z,5.53
2019-02-06T10:30:23.693Z,5.55
2019-02-06T10:31:23.660Z,5.56
2019-02-06T10:32:23.725Z,5.59
2019-02-06T10:33:23.616Z,5.56
2019-02-06T10:34:23.631Z,5.60
2019-02-06T10:35:23.631Z,5.63
2019-02-06T10:36:23.511Z,5.66
2019-02-06T10:37:23.552Z,5.73
2019-02-06T10:38:23.475Z,5.73
2019-02-06T10:39:33.971Z,5.81
2019-02-06T10:40:23.403Z,5.77
2019-02-06T10:41:23.371Z,5.81
2019-02-06T10:42:23.383Z,5.78
2019-02-06T10:43:31.759Z,5.88
2019-02-06T10:44:23.281Z,5.86
2019-02-06T10:45:23.294Z,5.98
2019-02-06T10:46:23.304Z,5.93
2019-02-06T10:47:23.191Z,6.03
2019-02-06T10:48:23.224Z,6.01
2019-02-06T10:49:23.138Z,6.04
2019-02-06T10:50:23.134Z,6.18
2019-02-06T10:51:23.074Z,6.22
2019-02-06T10:52:23.141Z,6.22
2019-02-06T10:53:23.011Z,6.19
2019-02-06T10:54:23.051Z,6.22
2019-02-06T10:55:22.952Z,6.26
2019-02-06T10:56:22.962Z,6.29
2019-02-06T10:57:22.973Z,6.28
2019-02-06T10:58:22.873Z,6.36
2019-02-06T10:59:22.905Z,6.32
2019-02-06T11:00:22.811Z,6.41
2019-02-06T11:01:22.791Z,6.38
2019-02-06T11:02:22.752Z,6.43
2019-02-06T11:03:22.827Z,6.47
2019-02-06T11:04:22.693Z,6.56
2019-02-06T11:05:22.722Z,6.51
2019-02-06T11:06:22.643Z,6.61
2019-02-06T11:07:22.634Z,6.63
2019-02-06T11:08:22.584Z,6.72
2019-02-06T11:09:22.653Z,6.84
2019-02-06T11:10:22.525Z,6.94
2019-02-06T11:11:22.562Z,7.05
2019-02-06T11:12:24.629Z,7.02
2019-02-06T11:13:22.434Z,7.16
2019-02-06T11:14:22.412Z,7.20
2019-02-06T11:15:22.495Z,7.38
2019-02-06T11:16:22.344Z,7.45
2019-02-06T11:17:22.393Z,7.55
2019-02-06T11:18:22.293Z,7.50
2019-02-06T11:19:22.265Z,7.52
2019-02-06T11:20:22.311Z,7.55
2019-02-06T11:21:22.206Z,7.63
2019-02-06T11:22:22.233Z,7.69
2019-02-06T11:23:22.144Z,7.74
2019-02-06T11:24:22.121Z,7.77
2019-02-06T11:25:22.143Z,7.72
2019-02-06T11:26:22.063Z,7.71
2019-02-06T11:27:22.051Z,7.81
2019-02-06T11:28:22.008Z,7.79
2019-02-06T11:29:22.074Z,7.84
2019-02-06T11:30:21.952Z,7.82
2019-02-06T11:31:22.075Z,7.87
2019-02-06T11:32:21.891Z,7.82
2019-02-06T11:33:21.893Z,7.93
2019-02-06T11:34:21.831Z,7.87
2019-02-06T11:35:21.801Z,7.85
2019-02-06T11:36:24.244Z,7.90
2019-02-06T11:37:21.741Z,7.90
2019-02-06T11:38:21.822Z,7.96
2019-02-06T11:39:21.683Z,7.99
2019-02-06T11:40:21.652Z,8.04
2019-02-06T11:41:21.636Z,8.12
2019-02-06T11:42:21.752Z,8.07
2019-02-06T11:43:21.576Z,8.14
2019-02-06T11:44:21.662Z,8.07
2019-02-06T11:45:21.525Z,8.12
2019-02-06T11:46:21.483Z,8.12
2019-02-06T11:47:21.462Z,8.18
2019-02-06T11:48:21.497Z,8.21
2019-02-06T11:49:21.413Z,8.22
2019-02-06T11:50:21.405Z,8.36
2019-02-06T11:51:24.313Z,8.45
2019-02-06T11:52:21.526Z,8.44
2019-02-06T11:53:21.308Z,8.45
2019-02-06T11:54:21.421Z,8.55
2019-02-06T11:55:21.246Z,8.57
2019-02-06T11:56:21.346Z,8.65
2019-02-06T11:57:24.083Z,8.73
2019-02-06T11:58:21.163Z,8.72
2019-02-06T11:59:21.151Z,8.78
2019-02-06T12:00:21.093Z,8.83
2019-02-06T12:01:21.171Z,8.79
2019-02-06T12:02:21.033Z,8.84
2019-02-06T12:03:22.288Z,8.78
2019-02-06T12:04:20.983Z,8.88
2019-02-06T12:05:20.997Z,9.01
2019-02-06T12:06:20.923Z,9.24
2019-02-06T12:07:21.005Z,9.42
2019-02-06T12:08:20.913Z,9.71
2019-02-06T12:09:20.845Z,9.91
2019-02-06T12:10:20.921Z,9.85
2019-02-06T12:11:20.782Z,9.89
2019-02-06T12:12:20.834Z,9.93
2019-02-06T12:13:20.734Z,9.93
2019-02-06T12:14:20.702Z,9.93
2019-02-06T12:15:20.760Z,9.82
2019-02-06T12:16:20.793Z,9.94
2019-02-06T12:17:20.680Z,9.83
2019-02-06T12:18:20.597Z,9.82
2019-02-06T12:19:20.577Z,9.88
2019-02-06T12:20:20.543Z,9.81
2019-02-06T12:21:20.601Z,9.73
2019-02-06T12:22:20.492Z,9.70
2019-02-06T12:23:31.591Z,9.50
2019-02-06T12:24:20.433Z,9.43
2019-02-06T12:25:20.413Z,9.50
2019-02-06T12:26:20.422Z,9.46
2019-02-06T12:27:20.366Z,9.45
2019-02-06T12:28:20.456Z,9.50
2019-02-06T12:29:20.304Z,9.48
2019-02-06T12:30:20.271Z,9.50
2019-02-06T12:31:20.254Z,9.53
2019-02-06T12:32:20.261Z,9.49
2019-02-06T12:33:20.194Z,9.40
2019-02-06T12:34:20.284Z,9.48
2019-02-06T12:35:20.143Z,9.50
2019-02-06T12:36:20.118Z,9.39
2019-02-06T12:37:20.193Z,9.49
2019-02-06T12:38:20.061Z,9.39
2019-02-06T12:39:22.703Z,9.45
2019-02-06T12:40:21.918Z,9.48
2019-02-06T12:41:20.028Z,9.52
2019-02-06T12:42:19.951Z,9.52
2019-02-06T12:43:20.032Z,9.58
2019-02-06T12:44:19.900Z,9.63
2019-02-06T12:45:19.883Z,9.61
2019-02-06T12:46:19.842Z,9.63
2019-02-06T12:47:19.836Z,9.64
2019-02-06T12:48:19.791Z,9.67
2019-02-06T12:49:19.872Z,9.63
2019-02-06T12:50:19.732Z,9.57
2019-02-06T12:51:19.783Z,9.53
2019-02-06T12:52:19.683Z,9.48
2019-02-06T12:53:19.703Z,9.48
2019-02-06T12:54:19.635Z,9.50
2019-02-06T12:55:19.817Z,9.48
2019-02-06T12:56:19.572Z,9.53
2019-02-06T12:57:19.621Z,9.45
2019-02-06T12:58:19.521Z,9.40
2019-02-06T12:59:19.501Z,9.39
2019-02-06T13:00:19.472Z,9.49
2019-02-06T13:01:19.543Z,9.52
2019-02-06T13:02:19.412Z,9.50
2019-02-06T13:03:19.386Z,9.46
2019-02-06T13:04:19.365Z,9.45
2019-02-06T13:05:19.376Z,9.50
2019-02-06T13:06:19.311Z,9.43
2019-02-06T13:07:19.409Z,9.40
2019-02-06T13:08:19.253Z,9.48
2019-02-06T13:09:19.233Z,9.49
2019-02-06T13:10:19.306Z,9.48
2019-02-06T13:11:19.183Z,9.43
2019-02-06T13:12:19.224Z,9.50
2019-02-06T13:13:19.136Z,9.52
2019-02-06T13:14:19.091Z,9.53
2019-02-06T13:15:19.180Z,9.60
2019-02-06T13:16:19.145Z,9.57
2019-02-06T13:17:19.014Z,9.60
2019-02-06T13:18:19.055Z,9.58
2019-02-06T13:19:18.962Z,9.66
2019-02-06T13:20:21.016Z,9.63
2019-02-06T13:21:18.911Z,9.58